Ms Manya — WDC2359 — position and weather

sailwx.info

Track history (hours):
 
Tides and Currents Weather Stations Pressure Air Temp Water Temp Dewpoint Dewpoint Depression Visibility Wind Speed Wind Dir Waves Ship Positions

Ms Manya

Owner: CAPT JOHN INC, BARNEGAT LIGHT, NJ. More information available from US FCC via Universal Licensing System and Coast Guard Vessel Documentation Center.

Last reported at 2017-Nov-18 11:37 UTC. Time now 2017-Nov-20 07:52 UTC.
Position N 39°45' W 074°07'.

Length 21 m.

Type: Fishing. MMSI: 366991820.

Date/timePositionNaut miles runAvg speedWind from/ knotsBaromVisibWave heightAir tempDewpointWater temp
2017-Nov-18 11:37N 39°45' W 074°07'0 0.0
2017-Nov-18 06:43N 39°45' W 074°07'0 0.0
2017-Nov-18 06:10N 39°45' W 074°07'0 0.0
2017-Nov-16 05:34N 39°45' W 074°07'0 0.0
2017-Nov-15 19:28N 39°45' W 074°07'1 0.2
2017-Nov-15 16:12N 39°46' W 074°07'1 5.1
2017-Nov-15 15:58N 39°46' W 074°05'4 0.1
2017-Nov-14 15:08N 39°47' W 074°01'3 7.7
2017-Nov-14 14:48N 39°46' W 074°04'3 6.6
2017-Nov-14 14:25N 39°45' W 074°07'0 0.6
2017-Nov-14 13:52N 39°45' W 074°07'0 0.0
2017-Nov-14 11:04N 39°45' W 074°07'0 0.0
2017-Nov-14 10:52N 39°45' W 074°07'0 0.0
2017-Nov-14 06:52N 39°45' W 074°07'0 0.0
2017-Nov-13 22:40N 39°45' W 074°07'0 0.0
2017-Nov-13 22:16N 39°45' W 074°07'5 0.2
2017-Nov-12 16:13N 39°46' W 074°01'2 8.5
2017-Nov-12 16:00N 39°46' W 074°03'3 4.4
2017-Nov-12 15:17N 39°45' W 074°07'0 0.0
2017-Nov-12 14:47N 39°45' W 074°07'0 0.0
2017-Nov-12 12:59N 39°45' W 074°07'0 0.0
2017-Nov-12 12:29N 39°45' W 074°07'0 0.0
2017-Nov-12 09:17N 39°45' W 074°07'0 0.0
2017-Nov-12 08:41N 39°45' W 074°07'0 0.0
2017-Nov-12 08:29N 39°45' W 074°07'0 0.0
2017-Nov-12 05:47N 39°45' W 074°07'0 0.0
2017-Nov-11 23:35N 39°45' W 074°07'0 0.0
2017-Nov-11 23:23N 39°45' W 074°07'0 0.0
2017-Nov-11 19:17N 39°45' W 074°07'0 0.0
2017-Nov-11 17:23N 39°45' W 074°07'0 0.0
2017-Nov-11 15:47N 39°45' W 074°07'0 0.0
2017-Nov-11 10:35N 39°45' W 074°07'0 0.0
2017-Nov-11 10:29N 39°45' W 074°07'0 0.0
2017-Nov-11 07:31N 39°45' W 074°07'0 0.0
2017-Nov-11 07:19N 39°45' W 074°07'0 0.0
2017-Nov-11 04:31N 39°45' W 074°07'0 0.1
2017-Nov-11 04:25N 39°45' W 074°07'0 0.0
2017-Nov-11 03:01N 39°45' W 074°07'0 0.0
2017-Nov-11 02:55N 39°45' W 074°07'0 0.0
2017-Nov-11 02:20N 39°45' W 074°07'0 0.0
2017-Nov-11 01:44N 39°45' W 074°07'0 0.0
2017-Nov-11 01:14N 39°45' W 074°07'0 0.0
2017-Nov-11 00:44N 39°45' W 074°07'0 0.0
2017-Nov-10 23:20N 39°45' W 074°07'0 0.0
2017-Nov-10 22:32N 39°45' W 074°07'0 0.0
2017-Nov-10 17:08N 39°45' W 074°07'0 0.0
2017-Nov-10 09:29N 39°45' W 074°07'0 0.0
2017-Nov-10 03:02N 39°45' W 074°07'0 0.0
2017-Nov-10 02:50N 39°45' W 074°07'0 0.0
2017-Nov-10 02:26N 39°45' W 074°07'0 0.0
2017-Nov-10 01:44N 39°45' W 074°07'0 0.0
2017-Nov-10 01:20N 39°45' W 074°07'0 0.0
2017-Nov-10 00:59N 39°45' W 074°07'0 0.0
2017-Nov-10 00:20N 39°45' W 074°07'0 0.0
2017-Nov-09 23:56N 39°45' W 074°07'0 0.0
2017-Nov-09 23:20N 39°45' W 074°07'0 0.0
2017-Nov-09 22:56N 39°45' W 074°07'0 0.0
2017-Nov-09 18:08N 39°45' W 074°07'0 0.0
2017-Nov-09 17:08N 39°45' W 074°07'0 0.0
2017-Nov-09 15:08N 39°45' W 074°07'0 0.0
2017-Nov-09 13:08N 39°45' W 074°07'0 0.0
2017-Nov-09 12:02N 39°45' W 074°07'0 0.0
2017-Nov-09 09:50N 39°45' W 074°07'0 0.0
2017-Nov-09 08:02N 39°45' W 074°07'0 0.0
2017-Nov-09 07:38N 39°45' W 074°07'0 0.0
2017-Nov-08 22:38N 39°45' W 074°07'0 0.0
2017-Nov-08 17:50N 39°45' W 074°07'0 0.0
2017-Nov-08 17:26N 39°45' W 074°07'0 0.0
2017-Nov-08 16:05N 39°45' W 074°07'0 0.0
2017-Nov-08 15:53N 39°45' W 074°07'0 0.0
2017-Nov-08 14:35N 39°45' W 074°07'0 0.0
2017-Nov-08 14:11N 39°45' W 074°07'0 0.0
2017-Nov-08 13:59N 39°45' W 074°07'0 0.0
2017-Nov-08 13:18N 39°45' W 074°07'  
Track history (hours):
 
Tides and Currents Weather Stations Pressure Air Temp Water Temp Dewpoint Dewpoint Depression Visibility Wind Speed Wind Dir Waves Ship Positions

Ms Manya

Owner: CAPT JOHN INC, BARNEGAT LIGHT, NJ. More information available from US FCC via Universal Licensing System and Coast Guard Vessel Documentation Center.

Last reported at 2017-Nov-18 11:37 UTC. Time now 2017-Nov-20 07:52 UTC.
Position N 39°45' W 074°07'.

Length 21 m.

Type: Fishing. MMSI: 366991820.

Date/timePositionNaut miles runAvg speedWind from/ knotsBaromVisibWave heightAir tempDewpointWater temp
2017-Nov-18 11:37N 39°45' W 074°07'0 0.0
2017-Nov-18 06:43N 39°45' W 074°07'0 0.0
2017-Nov-18 06:10N 39°45' W 074°07'0 0.0
2017-Nov-16 05:34N 39°45' W 074°07'0 0.0
2017-Nov-15 19:28N 39°45' W 074°07'1 0.2
2017-Nov-15 16:12N 39°46' W 074°07'1 5.1
2017-Nov-15 15:58N 39°46' W 074°05'4 0.1
2017-Nov-14 15:08N 39°47' W 074°01'3 7.7
2017-Nov-14 14:48N 39°46' W 074°04'3 6.6
2017-Nov-14 14:25N 39°45' W 074°07'0 0.6
2017-Nov-14 13:52N 39°45' W 074°07'0 0.0
2017-Nov-14 11:04N 39°45' W 074°07'0 0.0
2017-Nov-14 10:52N 39°45' W 074°07'0 0.0
2017-Nov-14 06:52N 39°45' W 074°07'0 0.0
2017-Nov-13 22:40N 39°45' W 074°07'0 0.0
2017-Nov-13 22:16N 39°45' W 074°07'5 0.2
2017-Nov-12 16:13N 39°46' W 074°01'2 8.5
2017-Nov-12 16:00N 39°46' W 074°03'3 4.4
2017-Nov-12 15:17N 39°45' W 074°07'0 0.0
2017-Nov-12 14:47N 39°45' W 074°07'0 0.0
2017-Nov-12 12:59N 39°45' W 074°07'0 0.0
2017-Nov-12 12:29N 39°45' W 074°07'0 0.0
2017-Nov-12 09:17N 39°45' W 074°07'0 0.0
2017-Nov-12 08:41N 39°45' W 074°07'0 0.0
2017-Nov-12 08:29N 39°45' W 074°07'0 0.0
2017-Nov-12 05:47N 39°45' W 074°07'0 0.0
2017-Nov-11 23:35N 39°45' W 074°07'0 0.0
2017-Nov-11 23:23N 39°45' W 074°07'0 0.0
2017-Nov-11 19:17N 39°45' W 074°07'0 0.0
2017-Nov-11 17:23N 39°45' W 074°07'0 0.0
2017-Nov-11 15:47N 39°45' W 074°07'0 0.0
2017-Nov-11 10:35N 39°45' W 074°07'0 0.0
2017-Nov-11 10:29N 39°45' W 074°07'0 0.0
2017-Nov-11 07:31N 39°45' W 074°07'0 0.0
2017-Nov-11 07:19N 39°45' W 074°07'0 0.0
2017-Nov-11 04:31N 39°45' W 074°07'0 0.1
2017-Nov-11 04:25N 39°45' W 074°07'0 0.0
2017-Nov-11 03:01N 39°45' W 074°07'0 0.0
2017-Nov-11 02:55N 39°45' W 074°07'0 0.0
2017-Nov-11 02:20N 39°45' W 074°07'0 0.0
2017-Nov-11 01:44N 39°45' W 074°07'0 0.0
2017-Nov-11 01:14N 39°45' W 074°07'0 0.0
2017-Nov-11 00:44N 39°45' W 074°07'0 0.0
2017-Nov-10 23:20N 39°45' W 074°07'0 0.0
2017-Nov-10 22:32N 39°45' W 074°07'0 0.0
2017-Nov-10 17:08N 39°45' W 074°07'0 0.0
2017-Nov-10 09:29N 39°45' W 074°07'0 0.0
2017-Nov-10 03:02N 39°45' W 074°07'0 0.0
2017-Nov-10 02:50N 39°45' W 074°07'0 0.0
2017-Nov-10 02:26N 39°45' W 074°07'0 0.0
2017-Nov-10 01:44N 39°45' W 074°07'0 0.0
2017-Nov-10 01:20N 39°45' W 074°07'0 0.0
2017-Nov-10 00:59N 39°45' W 074°07'0 0.0
2017-Nov-10 00:20N 39°45' W 074°07'0 0.0
2017-Nov-09 23:56N 39°45' W 074°07'0 0.0
2017-Nov-09 23:20N 39°45' W 074°07'0 0.0
2017-Nov-09 22:56N 39°45' W 074°07'0 0.0
2017-Nov-09 18:08N 39°45' W 074°07'0 0.0
2017-Nov-09 17:08N 39°45' W 074°07'0 0.0
2017-Nov-09 15:08N 39°45' W 074°07'0 0.0
2017-Nov-09 13:08N 39°45' W 074°07'0 0.0
2017-Nov-09 12:02N 39°45' W 074°07'0 0.0
2017-Nov-09 09:50N 39°45' W 074°07'0 0.0
2017-Nov-09 08:02N 39°45' W 074°07'0 0.0
2017-Nov-09 07:38N 39°45' W 074°07'0 0.0
2017-Nov-08 22:38N 39°45' W 074°07'0 0.0
2017-Nov-08 17:50N 39°45' W 074°07'0 0.0
2017-Nov-08 17:26N 39°45' W 074°07'0 0.0
2017-Nov-08 16:05N 39°45' W 074°07'0 0.0
2017-Nov-08 15:53N 39°45' W 074°07'0 0.0
2017-Nov-08 14:35N 39°45' W 074°07'0 0.0
2017-Nov-08 14:11N 39°45' W 074°07'0 0.0
2017-Nov-08 13:59N 39°45' W 074°07'0 0.0
2017-Nov-08 13:18N 39°45' W 074°07'  

Dump ship's entire track history